Time;durP1;ratioP1;P1;durP2;ratioP2;P2;SDS_P1;SDS_P2;PMS_P1;PMS_P2;Temp;Humidity;BMP_temperature;BMP_pressure;BME280_temperature;BME280_humidity;BME280_pressure;Samples;Min_cycle;Max_cycle;Signal;HPM_P1;HPM_P2
2023/09/26 00:04:01;;;;;;;33.85;20.95;;;;;;;;;;10442903;28;20035;-86
2023/09/26 00:09:05;;;;;;;29.13;18.55;;;;;;;;;;10442324;28;20388;-84
2023/09/26 00:14:06;;;;;;;38.63;23.10;;;;;;;;;;10446442;28;20037;-83
2023/09/26 00:19:14;;;;;;;29.80;18.70;;;;;;;;;;10441703;28;20115;-84
2023/09/26 00:24:15;;;;;;;34.05;20.80;;;;;;;;;;10450191;28;20104;-83
2023/09/26 00:29:16;;;;;;;35.38;20.23;;;;;;;;;;10454362;28;20583;-83
2023/09/26 00:34:17;;;;;;;35.10;20.17;;;;;;;;;;10448772;28;20729;-83
2023/09/26 00:39:18;;;;;;;34.95;19.80;;;;;;;;;;10448523;28;20061;-83
2023/09/26 00:44:19;;;;;;;31.15;18.58;;;;;;;;;;10456929;28;20033;-83
2023/09/26 00:49:20;;;;;;;30.60;17.90;;;;;;;;;;10449093;28;20040;-83
2023/09/26 00:54:22;;;;;;;38.03;20.85;;;;;;;;;;10458904;28;20718;-83
2023/09/26 00:59:23;;;;;;;35.15;20.48;;;;;;;;;;10434910;28;20024;-84
2023/09/26 01:04:24;;;;;;;32.38;19.33;;;;;;;;;;10451669;28;20111;-85
2023/09/26 01:09:25;;;;;;;39.88;21.98;;;;;;;;;;10447956;28;20048;-83
2023/09/26 01:14:26;;;;;;;37.15;22.02;;;;;;;;;;10462991;28;20076;-83
2023/09/26 01:19:27;;;;;;;36.05;21.08;;;;;;;;;;10447972;28;20086;-82
2023/09/26 01:24:28;;;;;;;36.70;19.52;;;;;;;;;;10432206;28;20091;-83
2023/09/26 01:29:29;;;;;;;43.03;21.60;;;;;;;;;;10446739;28;20392;-83
2023/09/26 01:34:30;;;;;;;130.85;26.27;;;;;;;;;;10451321;28;20036;-85
2023/09/26 01:39:31;;;;;;;35.08;19.02;;;;;;;;;;10427679;28;20071;-84
2023/09/26 01:44:32;;;;;;;23.25;13.50;;;;;;;;;;10429042;28;20051;-83
2023/09/26 01:49:35;;;;;;;46.20;20.23;;;;;;;;;;10457119;28;20041;-83
2023/09/26 01:54:36;;;;;;;32.47;18.27;;;;;;;;;;10449614;28;20375;-86
2023/09/26 01:59:37;;;;;;;35.75;16.20;;;;;;;;;;10451601;28;20040;-84
2023/09/26 02:04:37;;;;;;;25.98;15.35;;;;;;;;;;10443353;28;20029;-84
2023/09/26 02:09:38;;;;;;;24.48;15.68;;;;;;;;;;10437633;28;20528;-83
2023/09/26 02:14:39;;;;;;;23.67;14.02;;;;;;;;;;10445044;28;20028;-87
2023/09/26 02:19:41;;;;;;;51.85;20.35;;;;;;;;;;10430104;28;20033;-82
2023/09/26 02:24:42;;;;;;;21.13;13.57;;;;;;;;;;10444541;28;20024;-83
2023/09/26 02:29:44;;;;;;;23.38;14.68;;;;;;;;;;10439859;28;20472;-83
2023/09/26 02:34:45;;;;;;;35.50;19.15;;;;;;;;;;10446446;28;20025;-83
2023/09/26 02:39:46;;;;;;;21.08;12.88;;;;;;;;;;10425748;28;20459;-83
2023/09/26 02:44:47;;;;;;;30.77;19.08;;;;;;;;;;10444950;28;20039;-83
2023/09/26 02:49:54;;;;;;;38.05;21.52;;;;;;;;;;10443240;28;20128;-83
2023/09/26 02:54:55;;;;;;;22.92;14.10;;;;;;;;;;10432057;28;20032;-82
2023/09/26 02:59:57;;;;;;;16.63;11.10;;;;;;;;;;10444993;28;20550;-83
2023/09/26 03:04:58;;;;;;;29.95;18.20;;;;;;;;;;10443420;28;20028;-83
2023/09/26 03:09:59;;;;;;;41.00;18.88;;;;;;;;;;10444045;28;20041;-84
2023/09/26 03:15:00;;;;;;;41.97;22.38;;;;;;;;;;10443369;28;20037;-81
2023/09/26 03:20:02;;;;;;;56.67;22.15;;;;;;;;;;10450669;28;20033;-81
2023/09/26 03:25:03;;;;;;;57.63;22.55;;;;;;;;;;10451699;28;20029;-80
2023/09/26 03:30:04;;;;;;;47.47;23.63;;;;;;;;;;10442650;28;20037;-83
2023/09/26 03:35:06;;;;;;;26.95;15.68;;;;;;;;;;10464331;28;20412;-85
2023/09/26 03:40:08;;;;;;;31.10;16.15;;;;;;;;;;10435946;28;20124;-86
2023/09/26 03:45:17;;;;;;;39.08;20.98;;;;;;;;;;10426106;28;20037;-85
2023/09/26 03:50:18;;;;;;;33.33;16.67;;;;;;;;;;10413754;28;20045;-82
2023/09/26 03:55:19;;;;;;;57.45;22.92;;;;;;;;;;10441780;28;20029;-86
2023/09/26 04:00:28;;;;;;;26.48;16.00;;;;;;;;;;10446205;28;20119;-85
2023/09/26 04:05:29;;;;;;;18.23;12.43;;;;;;;;;;10452073;28;20479;-85
2023/09/26 04:10:30;;;;;;;65.07;25.77;;;;;;;;;;10460402;28;20037;-87
2023/09/26 04:15:31;;;;;;;51.20;20.50;;;;;;;;;;10439841;28;20117;-85
2023/09/26 04:20:35;;;;;;;28.00;16.10;;;;;;;;;;10468279;28;20035;-85
2023/09/26 04:25:36;;;;;;;28.63;17.05;;;;;;;;;;10445214;28;20056;-85
2023/09/26 04:30:39;;;;;;;38.55;20.85;;;;;;;;;;10445025;28;20044;-85
2023/09/26 04:35:40;;;;;;;42.47;22.40;;;;;;;;;;10430953;28;20033;-84
2023/09/26 04:40:41;;;;;;;51.60;24.30;;;;;;;;;;10448120;28;20488;-84
2023/09/26 04:45:42;;;;;;;44.50;23.08;;;;;;;;;;10449076;28;20025;-87
2023/09/26 04:50:43;;;;;;;49.45;23.95;;;;;;;;;;10447725;28;20049;-84
2023/09/26 04:55:44;;;;;;;44.30;23.92;;;;;;;;;;10448372;28;20033;-85
2023/09/26 05:00:46;;;;;;;41.58;23.30;;;;;;;;;;10447349;28;20036;-84
2023/09/26 05:05:47;;;;;;;49.85;24.73;;;;;;;;;;10448506;28;20032;-85
2023/09/26 05:10:49;;;;;;;38.13;21.88;;;;;;;;;;10447818;28;20039;-86
2023/09/26 05:15:51;;;;;;;51.58;26.23;;;;;;;;;;10429607;28;20029;-88
2023/09/26 05:20:52;;;;;;;46.53;25.20;;;;;;;;;;10442802;28;20071;-85
2023/09/26 05:26:07;;;;;;;44.80;24.02;;;;;;;;;;10440955;28;20041;-85
2023/09/26 05:31:08;;;;;;;42.42;24.02;;;;;;;;;;10447037;28;20033;-84
2023/09/26 05:36:09;;;;;;;43.33;22.70;;;;;;;;;;10448079;28;20087;-84
2023/09/26 05:41:17;;;;;;;41.83;23.45;;;;;;;;;;10446257;28;20165;-83
2023/09/26 05:46:18;;;;;;;45.88;24.30;;;;;;;;;;10445655;28;20123;-82
2023/09/26 05:51:25;;;;;;;41.40;22.80;;;;;;;;;;10493031;23;20439;-85
2023/09/26 05:56:27;;;;;;;47.72;24.10;;;;;;;;;;10474325;28;20036;-87
2023/09/26 06:01:28;;;;;;;38.20;22.27;;;;;;;;;;10481262;28;20032;-86
2023/09/26 06:06:29;;;;;;;39.55;22.08;;;;;;;;;;10486973;28;20028;-83
2023/09/26 06:11:30;;;;;;;36.95;20.40;;;;;;;;;;10468335;28;20090;-84
2023/09/26 06:16:31;;;;;;;35.80;21.83;;;;;;;;;;10467672;28;20436;-86
2023/09/26 06:21:32;;;;;;;32.10;19.67;;;;;;;;;;10485001;28;20033;-84
2023/09/26 06:26:33;;;;;;;31.35;19.63;;;;;;;;;;10479602;28;20430;-84
2023/09/26 06:31:34;;;;;;;30.95;18.45;;;;;;;;;;10455086;28;20045;-84
2023/09/26 06:36:37;;;;;;;27.17;17.63;;;;;;;;;;10456256;28;20028;-84
2023/09/26 06:41:38;;;;;;;37.55;23.67;;;;;;;;;;10486366;28;20033;-84
2023/09/26 06:46:39;;;;;;;52.33;29.60;;;;;;;;;;10485831;28;20016;-84
2023/09/26 06:51:40;;;;;;;52.05;30.27;;;;;;;;;;10484965;28;20499;-85
2023/09/26 06:56:41;;;;;;;49.00;30.95;;;;;;;;;;10484040;28;20028;-85
2023/09/26 07:01:43;;;;;;;43.28;24.13;;;;;;;;;;10454131;28;20483;-86
2023/09/26 07:06:45;;;;;;;27.48;18.20;;;;;;;;;;10484690;28;20029;-85
2023/09/26 07:11:49;;;;;;;29.27;16.17;;;;;;;;;;10467478;28;20082;-84
2023/09/26 07:16:51;;;;;;;25.23;15.48;;;;;;;;;;10471544;28;20037;-86
2023/09/26 07:21:52;;;;;;;29.17;16.77;;;;;;;;;;10477464;28;20032;-84
2023/09/26 07:26:53;;;;;;;26.02;13.75;;;;;;;;;;10483799;28;20028;-85
2023/09/26 07:31:54;;;;;;;19.45;12.68;;;;;;;;;;10474325;28;20044;-85
2023/09/26 07:36:55;;;;;;;20.05;12.85;;;;;;;;;;10468327;28;20041;-85
2023/09/26 07:41:56;;;;;;;24.40;15.27;;;;;;;;;;10473497;28;20119;-84
2023/09/26 07:46:57;;;;;;;23.52;15.43;;;;;;;;;;10491458;28;20392;-85
2023/09/26 07:51:58;;;;;;;25.77;15.60;;;;;;;;;;10488332;28;20052;-84
2023/09/26 07:56:59;;;;;;;25.88;15.77;;;;;;;;;;10498781;28;20032;-85
2023/09/26 08:02:00;;;;;;;24.60;16.35;;;;;;;;;;10473705;28;20507;-83
2023/09/26 08:07:01;;;;;;;25.02;16.15;;;;;;;;;;10491874;28;20047;-84
2023/09/26 08:12:02;;;;;;;25.23;15.15;;;;;;;;;;10473470;28;20039;-84
2023/09/26 08:17:03;;;;;;;22.30;15.63;;;;;;;;;;10473017;28;20032;-86
2023/09/26 08:22:04;;;;;;;23.23;15.05;;;;;;;;;;10491251;28;20067;-86
2023/09/26 08:27:06;;;;;;;23.33;14.00;;;;;;;;;;10460783;28;20547;-86
2023/09/26 08:32:07;;;;;;;20.27;13.57;;;;;;;;;;10480975;28;20045;-84
2023/09/26 08:37:08;;;;;;;35.35;20.52;;;;;;;;;;10502852;28;20082;-84
2023/09/26 08:42:09;;;;;;;23.23;17.45;;;;;;;;;;10489987;28;20749;-85
2023/09/26 08:47:10;;;;;;;23.25;15.55;;;;;;;;;;10488942;28;20442;-84
2023/09/26 08:52:11;;;;;;;26.20;17.63;;;;;;;;;;10488859;28;20064;-84
2023/09/26 08:57:12;;;;;;;26.08;16.02;;;;;;;;;;10456165;23;20468;-84
2023/09/26 09:02:13;;;;;;;24.23;17.73;;;;;;;;;;10434985;28;20033;-85
2023/09/26 09:07:15;;;;;;;27.42;17.60;;;;;;;;;;10448206;28;20028;-84
2023/09/26 09:12:22;;;;;;;25.95;16.95;;;;;;;;;;10448957;28;20388;-85
2023/09/26 09:17:23;;;;;;;29.48;21.48;;;;;;;;;;10447976;28;20052;-86
2023/09/26 09:22:24;;;;;;;28.33;22.13;;;;;;;;;;10477315;28;20077;-85
2023/09/26 09:27:29;;;;;;;27.50;19.35;;;;;;;;;;10488307;28;20029;-86
2023/09/26 09:32:30;;;;;;;33.03;18.98;;;;;;;;;;10476049;28;20588;-87
2023/09/26 09:37:32;;;;;;;29.45;19.95;;;;;;;;;;10477352;28;20033;-85
2023/09/26 09:42:33;;;;;;;25.55;16.77;;;;;;;;;;10466009;28;20669;-86
2023/09/26 09:47:35;;;;;;;23.38;15.85;;;;;;;;;;10487466;28;20566;-86
2023/09/26 09:52:39;;;;;;;20.55;14.00;;;;;;;;;;10468796;28;20125;-84
2023/09/26 09:57:43;;;;;;;23.90;13.63;;;;;;;;;;10486979;28;20048;-85
2023/09/26 10:02:45;;;;;;;22.42;13.20;;;;;;;;;;10487077;28;20032;-85
2023/09/26 10:07:47;;;;;;;19.83;12.77;;;;;;;;;;10482743;28;20020;-86
2023/09/26 10:12:48;;;;;;;20.30;13.00;;;;;;;;;;10468796;28;20036;-85
2023/09/26 10:17:55;;;;;;;20.83;12.48;;;;;;;;;;10487157;28;20047;-85
2023/09/26 10:23:10;;;;;;;18.60;12.32;;;;;;;;;;10469034;28;20456;-84
2023/09/26 10:28:11;;;;;;;24.85;10.43;;;;;;;;;;10459006;28;20119;-85
2023/09/26 10:33:13;;;;;;;19.23;12.10;;;;;;;;;;10457560;28;20033;-85
2023/09/26 10:38:23;;;;;;;20.00;12.20;;;;;;;;;;10486095;28;20055;-82
2023/09/26 10:43:27;;;;;;;19.80;11.77;;;;;;;;;;10485737;28;20055;-85
2023/09/26 10:48:31;;;;;;;20.65;11.10;;;;;;;;;;10485476;28;20040;-84
2023/09/26 10:53:32;;;;;;;19.03;11.27;;;;;;;;;;10479019;28;20060;-85
2023/09/26 10:58:34;;;;;;;21.75;11.45;;;;;;;;;;10426510;28;20037;-85
2023/09/26 11:03:35;;;;;;;19.30;10.57;;;;;;;;;;10451748;28;20059;-84
2023/09/26 11:08:36;;;;;;;19.75;10.02;;;;;;;;;;10443047;28;20052;-85
2023/09/26 11:13:44;;;;;;;21.23;10.85;;;;;;;;;;10434261;28;20032;-85
2023/09/26 11:18:45;;;;;;;18.17;9.00;;;;;;;;;;10448433;28;20033;-86
2023/09/26 11:23:46;;;;;;;17.00;9.65;;;;;;;;;;10447643;28;20503;-85
2023/09/26 11:28:47;;;;;;;18.08;9.52;;;;;;;;;;10443426;28;20485;-85
2023/09/26 11:33:55;;;;;;;16.10;9.45;;;;;;;;;;10444430;28;20440;-86
2023/09/26 11:38:59;;;;;;;13.77;7.65;;;;;;;;;;10403882;28;20029;-86
2023/09/26 11:44:09;;;;;;;16.00;7.90;;;;;;;;;;10442772;28;20083;-86
2023/09/26 11:49:12;;;;;;;15.77;8.82;;;;;;;;;;10429006;28;20396;-86
2023/09/26 11:54:13;;;;;;;15.20;7.28;;;;;;;;;;10454377;28;20416;-87
2023/09/26 11:59:15;;;;;;;16.27;7.80;;;;;;;;;;10484666;28;20033;-85
2023/09/26 12:04:16;;;;;;;10.00;6.35;;;;;;;;;;10482508;28;20040;-84
2023/09/26 12:09:21;;;;;;;13.07;6.10;;;;;;;;;;10474806;28;20041;-85
2023/09/26 12:14:22;;;;;;;11.07;5.97;;;;;;;;;;10479165;28;20061;-88
2023/09/26 12:19:23;;;;;;;12.90;6.05;;;;;;;;;;10471936;28;20017;-86
2023/09/26 12:24:27;;;;;;;12.00;6.32;;;;;;;;;;10469644;28;20040;-85
2023/09/26 12:29:30;;;;;;;11.27;5.53;;;;;;;;;;10477622;28;20123;-86
2023/09/26 12:34:31;;;;;;;13.63;6.00;;;;;;;;;;10481090;28;20079;-84
2023/09/26 12:39:32;;;;;;;13.63;6.15;;;;;;;;;;10488444;28;20032;-84
2023/09/26 12:44:39;;;;;;;10.85;5.30;;;;;;;;;;10487212;28;20024;-81
2023/09/26 12:49:40;;;;;;;15.07;6.07;;;;;;;;;;10487005;28;20044;-82
2023/09/26 12:54:41;;;;;;;17.08;5.72;;;;;;;;;;10487840;28;20837;-80
2023/09/26 12:59:42;;;;;;;11.80;5.82;;;;;;;;;;10482195;28;20029;-80
2023/09/26 13:04:43;;;;;;;9.40;4.90;;;;;;;;;;10479322;28;20033;-82
2023/09/26 13:09:44;;;;;;;6.72;4.43;;;;;;;;;;10474570;28;20044;-81
2023/09/26 13:14:45;;;;;;;11.30;4.65;;;;;;;;;;10487578;28;20031;-82
2023/09/26 13:19:46;;;;;;;9.32;4.65;;;;;;;;;;10488110;28;20119;-81
2023/09/26 13:24:47;;;;;;;9.38;3.80;;;;;;;;;;10487687;28;20021;-81
2023/09/26 13:29:48;;;;;;;6.63;4.03;;;;;;;;;;10487445;28;20032;-81
2023/09/26 13:34:49;;;;;;;7.72;4.90;;;;;;;;;;10488140;28;20597;-82
2023/09/26 13:39:50;;;;;;;9.55;4.97;;;;;;;;;;10486330;28;20028;-81
2023/09/26 13:44:53;;;;;;;10.57;4.45;;;;;;;;;;10464878;28;20024;-81
2023/09/26 13:49:53;;;;;;;12.65;5.35;;;;;;;;;;10481031;28;20033;-82
2023/09/26 13:54:55;;;;;;;11.40;5.20;;;;;;;;;;10474070;28;20110;-81
2023/09/26 13:59:56;;;;;;;8.00;4.72;;;;;;;;;;10440965;28;20728;-81
2023/09/26 14:04:58;;;;;;;10.73;6.35;;;;;;;;;;10443939;28;20032;-81
2023/09/26 14:09:59;;;;;;;13.30;5.22;;;;;;;;;;10441206;28;20128;-81
2023/09/26 14:15:00;;;;;;;8.27;5.07;;;;;;;;;;10441178;28;20029;-81
2023/09/26 14:20:01;;;;;;;11.68;5.70;;;;;;;;;;10442750;28;20198;-82
2023/09/26 14:25:02;;;;;;;12.63;6.65;;;;;;;;;;10439805;28;20024;-84
2023/09/26 14:30:03;;;;;;;10.05;6.90;;;;;;;;;;10430051;28;20783;-83
2023/09/26 14:35:05;;;;;;;20.70;7.43;;;;;;;;;;10444107;28;20033;-84
2023/09/26 14:40:08;;;;;;;13.45;7.82;;;;;;;;;;10430049;28;20784;-83
2023/09/26 14:45:09;;;;;;;15.38;7.70;;;;;;;;;;10435618;28;20124;-84
2023/09/26 14:50:10;;;;;;;12.88;8.50;;;;;;;;;;10442191;28;20515;-83
2023/09/26 14:55:11;;;;;;;18.65;9.48;;;;;;;;;;10451279;28;20063;-82
2023/09/26 15:00:12;;;;;;;17.40;9.23;;;;;;;;;;10467651;28;20028;-82
2023/09/26 15:05:13;;;;;;;15.25;8.85;;;;;;;;;;10471678;28;20039;-83
2023/09/26 15:10:15;;;;;;;18.08;8.93;;;;;;;;;;10470356;28;20222;-82
2023/09/26 15:15:16;;;;;;;18.75;8.85;;;;;;;;;;10483157;28;20564;-83
2023/09/26 15:20:18;;;;;;;18.13;8.63;;;;;;;;;;10484341;28;20044;-82
2023/09/26 15:25:19;;;;;;;16.70;9.30;;;;;;;;;;10473948;28;20029;-82
2023/09/26 15:30:21;;;;;;;17.38;8.68;;;;;;;;;;10465939;28;20051;-83
2023/09/26 15:35:22;;;;;;;15.13;8.90;;;;;;;;;;10475033;28;20033;-82
2023/09/26 15:40:23;;;;;;;13.07;8.63;;;;;;;;;;10479868;28;20032;-82
2023/09/26 15:45:24;;;;;;;13.07;9.93;;;;;;;;;;10482644;28;20036;-83
2023/09/26 15:50:25;;;;;;;13.30;9.73;;;;;;;;;;10464754;28;20624;-83
2023/09/26 15:55:26;;;;;;;19.45;13.32;;;;;;;;;;10481467;28;20056;-83
2023/09/26 16:00:28;;;;;;;17.00;10.20;;;;;;;;;;10486231;28;20036;-83
2023/09/26 16:05:30;;;;;;;20.80;13.95;;;;;;;;;;10491414;28;20533;-83
2023/09/26 16:10:31;;;;;;;24.42;15.85;;;;;;;;;;10489866;28;20028;-84
2023/09/26 16:15:39;;;;;;;22.05;13.20;;;;;;;;;;10486026;28;20025;-84
2023/09/26 16:20:40;;;;;;;20.17;13.55;;;;;;;;;;10470363;28;20499;-83
2023/09/26 16:25:41;;;;;;;17.95;12.73;;;;;;;;;;10476962;28;20033;-86
2023/09/26 16:30:43;;;;;;;21.40;13.70;;;;;;;;;;10479563;28;20133;-86
2023/09/26 16:35:44;;;;;;;19.40;13.68;;;;;;;;;;10488444;28;20722;-83
2023/09/26 16:40:45;;;;;;;16.92;11.82;;;;;;;;;;10484264;28;20089;-81
2023/09/26 16:45:46;;;;;;;20.30;12.73;;;;;;;;;;10484180;28;20032;-86
2023/09/26 16:50:47;;;;;;;21.33;14.55;;;;;;;;;;10488139;28;20653;-84
2023/09/26 16:55:48;;;;;;;20.80;13.77;;;;;;;;;;10479927;28;20064;-86
2023/09/26 17:00:50;;;;;;;20.60;14.18;;;;;;;;;;10477657;28;20099;-84
2023/09/26 17:05:52;;;;;;;18.90;12.10;;;;;;;;;;10484433;28;20020;-84
2023/09/26 17:10:53;;;;;;;20.30;14.30;;;;;;;;;;10484601;28;20040;-84
2023/09/26 17:15:56;;;;;;;22.85;13.95;;;;;;;;;;10482296;28;20438;-83
2023/09/26 17:20:58;;;;;;;24.13;15.18;;;;;;;;;;10485189;28;20028;-82
2023/09/26 17:25:59;;;;;;;22.13;15.10;;;;;;;;;;10480024;28;20060;-83
2023/09/26 17:31:00;;;;;;;25.60;16.35;;;;;;;;;;10479786;28;20028;-81
2023/09/26 17:36:07;;;;;;;23.02;16.40;;;;;;;;;;10477282;28;20035;-83
2023/09/26 17:41:08;;;;;;;26.02;16.50;;;;;;;;;;10473376;28;20476;-82
2023/09/26 17:46:11;;;;;;;26.88;18.13;;;;;;;;;;10482748;28;20043;-81
2023/09/26 17:51:12;;;;;;;27.40;16.98;;;;;;;;;;10478197;28;20547;-81
2023/09/26 17:56:13;;;;;;;27.05;17.55;;;;;;;;;;10483347;28;20530;-83
2023/09/26 18:01:14;;;;;;;24.10;17.20;;;;;;;;;;10471559;28;20035;-82
2023/09/26 18:06:15;;;;;;;25.98;16.20;;;;;;;;;;10481027;28;20029;-82
2023/09/26 18:11:16;;;;;;;21.38;15.02;;;;;;;;;;10483211;28;20136;-82
2023/09/26 18:16:18;;;;;;;23.20;15.85;;;;;;;;;;10484528;28;20383;-83
2023/09/26 18:21:19;;;;;;;27.48;17.92;;;;;;;;;;10481558;28;20094;-85
2023/09/26 18:26:20;;;;;;;26.75;18.52;;;;;;;;;;10471434;28;20028;-82
2023/09/26 18:31:21;;;;;;;28.25;17.13;;;;;;;;;;10478223;28;20043;-84
2023/09/26 18:36:23;;;;;;;28.85;18.70;;;;;;;;;;10483653;28;20029;-82
2023/09/26 18:41:26;;;;;;;26.90;18.33;;;;;;;;;;10481804;28;20444;-83
2023/09/26 18:46:27;;;;;;;30.30;20.33;;;;;;;;;;10469188;28;20455;-82
2023/09/26 18:51:28;;;;;;;26.40;18.00;;;;;;;;;;10456721;28;20032;-82
2023/09/26 18:56:29;;;;;;;32.67;20.30;;;;;;;;;;10470347;28;20056;-82
2023/09/26 19:01:30;;;;;;;27.95;18.70;;;;;;;;;;10452681;28;20028;-83
2023/09/26 19:06:31;;;;;;;33.42;22.42;;;;;;;;;;10464191;28;20061;-83
2023/09/26 19:11:32;;;;;;;30.85;22.33;;;;;;;;;;10467608;28;20033;-84
2023/09/26 19:16:33;;;;;;;30.02;21.65;;;;;;;;;;10478969;28;20025;-82
2023/09/26 19:21:35;;;;;;;27.67;19.80;;;;;;;;;;10470980;28;20395;-82
2023/09/26 19:26:40;;;;;;;30.38;21.52;;;;;;;;;;10482139;28;20032;-85
2023/09/26 19:31:48;;;;;;;26.27;19.17;;;;;;;;;;10483689;28;20580;-83
2023/09/26 19:36:49;;;;;;;29.27;18.98;;;;;;;;;;10493236;28;20741;-84
2023/09/26 19:41:50;;;;;;;29.65;21.05;;;;;;;;;;10493357;28;20034;-83
2023/09/26 19:46:51;;;;;;;25.15;17.35;;;;;;;;;;10486864;28;20070;-83
2023/09/26 19:51:52;;;;;;;24.58;18.48;;;;;;;;;;10491843;28;20483;-82
2023/09/26 19:56:57;;;;;;;28.95;18.27;;;;;;;;;;10474742;28;20052;-82
2023/09/26 20:01:58;;;;;;;26.58;19.63;;;;;;;;;;10442977;28;20033;-82
2023/09/26 20:07:00;;;;;;;27.73;17.67;;;;;;;;;;10452288;28;20535;-82
2023/09/26 20:12:01;;;;;;;26.10;18.25;;;;;;;;;;10467142;28;20075;-82
2023/09/26 20:17:02;;;;;;;24.58;17.45;;;;;;;;;;10459684;28;20086;-82
2023/09/26 20:22:03;;;;;;;32.40;20.80;;;;;;;;;;10456471;28;20027;-84
2023/09/26 20:27:05;;;;;;;24.83;16.75;;;;;;;;;;10452633;28;20542;-83
2023/09/26 20:32:06;;;;;;;32.55;21.45;;;;;;;;;;10449528;28;20060;-82
2023/09/26 20:37:07;;;;;;;36.78;24.48;;;;;;;;;;10456228;28;20055;-82
2023/09/26 20:42:10;;;;;;;38.53;24.30;;;;;;;;;;10452390;28;20037;-82
2023/09/26 20:47:11;;;;;;;39.15;26.40;;;;;;;;;;10454252;28;20043;-83
2023/09/26 20:52:12;;;;;;;37.60;27.40;;;;;;;;;;10452322;28;20067;-82
2023/09/26 20:57:13;;;;;;;38.20;24.20;;;;;;;;;;10475737;28;20110;-82
2023/09/26 21:02:14;;;;;;;41.40;25.73;;;;;;;;;;10488294;28;20024;-85
2023/09/26 21:07:15;;;;;;;40.17;26.15;;;;;;;;;;10489796;28;20037;-81
2023/09/26 21:12:16;;;;;;;32.15;21.80;;;;;;;;;;10488536;28;20045;-82
2023/09/26 21:17:17;;;;;;;36.40;23.40;;;;;;;;;;10486348;28;20426;-82
2023/09/26 21:22:18;;;;;;;46.70;30.10;;;;;;;;;;10477717;28;20029;-82
2023/09/26 21:27:19;;;;;;;39.45;26.02;;;;;;;;;;10488745;28;20120;-82
2023/09/26 21:32:20;;;;;;;49.67;30.35;;;;;;;;;;10485937;28;20055;-84
2023/09/26 21:37:21;;;;;;;38.72;27.35;;;;;;;;;;10482012;28;20021;-82
2023/09/26 21:42:22;;;;;;;59.10;32.70;;;;;;;;;;10488459;28;20042;-82
2023/09/26 21:47:23;;;;;;;37.63;23.63;;;;;;;;;;10484966;28;20040;-82
2023/09/26 21:52:24;;;;;;;35.72;23.95;;;;;;;;;;10484531;28;20589;-84
2023/09/26 21:57:32;;;;;;;25.90;18.25;;;;;;;;;;10477221;28;20055;-83
2023/09/26 22:02:32;;;;;;;40.95;24.35;;;;;;;;;;10464373;28;20032;-83
2023/09/26 22:07:34;;;;;;;31.33;21.08;;;;;;;;;;10488194;28;20036;-83
2023/09/26 22:12:36;;;;;;;41.35;26.42;;;;;;;;;;10487010;28;20754;-82
2023/09/26 22:17:41;;;;;;;30.67;21.83;;;;;;;;;;10468706;28;20032;-83
2023/09/26 22:22:42;;;;;;;38.45;22.30;;;;;;;;;;10485665;28;20693;-81
2023/09/26 22:27:43;;;;;;;43.53;27.55;;;;;;;;;;10486144;28;20131;-82
2023/09/26 22:32:44;;;;;;;74.50;34.85;;;;;;;;;;10484827;28;20040;-83
2023/09/26 22:37:45;;;;;;;57.88;32.20;;;;;;;;;;10486350;28;20048;-85
2023/09/26 22:42:53;;;;;;;42.15;26.10;;;;;;;;;;10485744;28;20025;-83
2023/09/26 22:47:54;;;;;;;62.40;31.88;;;;;;;;;;10484751;28;20024;-83
2023/09/26 22:52:55;;;;;;;55.97;30.90;;;;;;;;;;10485488;28;20044;-82
2023/09/26 22:57:56;;;;;;;46.08;29.63;;;;;;;;;;10482785;28;20135;-82
2023/09/26 23:02:57;;;;;;;32.92;23.13;;;;;;;;;;10484708;28;20032;-82
2023/09/26 23:07:58;;;;;;;50.13;28.42;;;;;;;;;;10484941;28;20028;-84
2023/09/26 23:12:59;;;;;;;38.05;25.08;;;;;;;;;;10483668;28;20047;-82
2023/09/26 23:18:00;;;;;;;73.28;33.88;;;;;;;;;;10483347;28;20024;-85
2023/09/26 23:23:01;;;;;;;39.60;26.95;;;;;;;;;;10484746;28;20750;-82
2023/09/26 23:28:05;;;;;;;43.15;26.33;;;;;;;;;;10483655;28;20032;-82
2023/09/26 23:33:06;;;;;;;44.90;26.98;;;;;;;;;;10484560;28;20120;-83
2023/09/26 23:38:07;;;;;;;39.33;25.35;;;;;;;;;;10485112;28;20109;-82
2023/09/26 23:43:08;;;;;;;41.92;27.25;;;;;;;;;;10484514;28;20062;-84
2023/09/26 23:48:09;;;;;;;46.55;29.30;;;;;;;;;;10484576;28;20037;-82
2023/09/26 23:53:10;;;;;;;46.05;26.55;;;;;;;;;;10484287;28;20385;-82
2023/09/26 23:58:11;;;;;;;45.00;28.73;;;;;;;;;;10482443;28;20702;-82
